createdAt,value
2022-11-16T00:01:09.511Z,78.56
2022-11-16T00:03:36.155Z,79.20
2022-11-16T00:06:07.724Z,80.99
2022-11-16T00:08:37.002Z,81.57
2022-11-16T00:11:08.372Z,81.06
2022-11-16T00:13:36.013Z,81.85
2022-11-16T00:16:03.418Z,79.75
2022-11-16T00:18:30.221Z,79.71
2022-11-16T00:20:57.359Z,80.83
2022-11-16T00:23:23.828Z,80.96
2022-11-16T00:25:50.515Z,80.40
2022-11-16T00:28:17.442Z,80.85
2022-11-16T00:30:43.921Z,80.89
2022-11-16T00:33:15.376Z,81.80
2022-11-16T00:35:41.936Z,82.41
2022-11-16T00:38:08.444Z,80.45
2022-11-16T00:40:34.960Z,80.87
2022-11-16T00:43:01.459Z,82.00
2022-11-16T00:45:27.943Z,81.67
2022-11-16T00:48:00.169Z,80.23
2022-11-16T00:50:27.305Z,81.13
2022-11-16T00:52:54.432Z,82.86
2022-11-16T00:55:20.920Z,81.12
2022-11-16T00:57:47.426Z,81.33
2022-11-16T01:00:14.620Z,81.00
2022-11-16T01:02:41.417Z,81.35
2022-11-16T01:05:09.653Z,81.14
2022-11-16T01:07:37.721Z,80.79
2022-11-16T01:10:07.076Z,83.04
2022-11-16T01:12:33.641Z,81.03
2022-11-16T01:15:00.106Z,79.98
2022-11-16T01:17:26.569Z,83.11
2022-11-16T01:19:53.616Z,81.03
2022-11-16T01:22:20.177Z,80.34
2022-11-16T01:24:46.934Z,80.26
2022-11-16T01:27:13.886Z,80.20
2022-11-16T01:29:40.365Z,80.41
2022-11-16T01:32:06.828Z,80.13
2022-11-16T01:34:33.301Z,81.18
2022-11-16T01:36:59.752Z,79.83
2022-11-16T01:39:26.219Z,81.24
2022-11-16T01:41:52.686Z,81.73
2022-11-16T01:44:31.435Z,81.86
2022-11-16T01:47:03.493Z,82.30
2022-11-16T01:49:33.308Z,81.82
2022-11-16T01:52:03.648Z,80.08
2022-11-16T01:54:31.222Z,80.05
2022-11-16T01:57:00.996Z,80.27
2022-11-16T01:59:28.508Z,81.03
2022-11-16T02:01:55.467Z,80.81
2022-11-16T02:04:21.956Z,80.99
2022-11-16T02:07:16.192Z,82.68
2022-11-16T02:10:04.182Z,80.77
2022-11-16T02:12:52.320Z,83.02
2022-11-16T02:15:18.835Z,82.02
2022-11-16T02:18:03.975Z,81.06
2022-11-16T02:20:44.548Z,80.31
2022-11-16T02:23:26.011Z,79.84
2022-11-16T02:26:27.121Z,81.24
2022-11-16T02:29:05.500Z,82.36
2022-11-16T02:31:38.104Z,80.50
2022-11-16T02:34:06.141Z,81.37
2022-11-16T02:36:34.081Z,82.80
2022-11-16T02:39:04.495Z,82.45
2022-11-16T02:41:34.030Z,83.08
2022-11-16T02:44:04.408Z,82.15
2022-11-16T02:46:34.303Z,81.81
2022-11-16T02:49:02.844Z,80.73
2022-11-16T02:51:29.846Z,82.49
2022-11-16T02:54:03.188Z,80.67
2022-11-16T02:56:30.250Z,80.96
2022-11-16T02:58:58.338Z,81.24
2022-11-16T03:01:32.878Z,79.87
2022-11-16T03:04:14.109Z,81.34
2022-11-16T03:06:41.772Z,81.82
2022-11-16T03:09:16.531Z,80.89
2022-11-16T03:12:00.941Z,81.38
2022-11-16T03:14:34.062Z,81.50
2022-11-16T03:17:01.641Z,81.15
2022-11-16T03:19:41.866Z,81.49
2022-11-16T03:22:20.808Z,81.48
2022-11-16T03:24:47.573Z,81.60
2022-11-16T03:27:34.661Z,81.24
2022-11-16T03:30:05.701Z,80.56
2022-11-16T03:32:54.413Z,80.92
2022-11-16T03:35:29.732Z,80.29
2022-11-16T03:37:57.969Z,83.59
2022-11-16T03:40:25.724Z,83.46
2022-11-16T03:42:52.453Z,83.11
2022-11-16T03:45:19.524Z,81.06
2022-11-16T03:47:46.311Z,79.49
2022-11-16T03:50:12.947Z,79.99
2022-11-16T03:52:39.441Z,81.63
2022-11-16T03:55:06.112Z,82.20
2022-11-16T03:57:32.574Z,81.78
2022-11-16T03:59:59.066Z,81.27
2022-11-16T04:02:25.530Z,80.22
2022-11-16T04:05:10.901Z,82.09
2022-11-16T04:07:56.041Z,82.63
2022-11-16T04:10:41.267Z,80.96
2022-11-16T04:13:29.161Z,83.16
2022-11-16T04:16:14.251Z,80.23
2022-11-16T04:18:59.584Z,82.50
2022-11-16T04:21:47.818Z,84.07
2022-11-16T04:24:20.710Z,80.98
2022-11-16T04:27:09.844Z,83.47
2022-11-16T04:29:36.419Z,83.05
2022-11-16T04:32:21.469Z,81.82
2022-11-16T04:35:06.809Z,82.63
2022-11-16T04:37:51.874Z,83.11
2022-11-16T04:40:23.350Z,83.08
2022-11-16T04:42:54.448Z,84.20
2022-11-16T04:45:40.100Z,83.76
2022-11-16T04:48:07.059Z,86.32
2022-11-16T04:50:33.954Z,83.77
2022-11-16T04:53:00.834Z,86.75
2022-11-16T04:55:27.312Z,83.40
2022-11-16T04:57:53.812Z,83.19
2022-11-16T05:00:20.669Z,83.14
2022-11-16T05:02:47.414Z,82.98
2022-11-16T05:05:14.094Z,83.26
2022-11-16T05:07:40.659Z,84.12
2022-11-16T05:10:07.615Z,84.09
2022-11-16T05:12:34.790Z,83.15
2022-11-16T05:15:01.531Z,84.49
2022-11-16T05:17:28.506Z,84.13
2022-11-16T05:20:13.632Z,83.13
2022-11-16T05:22:40.159Z,82.15
2022-11-16T05:25:08.198Z,82.83
2022-11-16T05:27:34.989Z,83.43
2022-11-16T05:30:01.627Z,84.86
2022-11-16T05:32:28.286Z,85.13
2022-11-16T05:34:54.769Z,84.38
2022-11-16T05:37:21.283Z,84.82
2022-11-16T05:39:48.167Z,85.27
2022-11-16T05:42:14.601Z,85.91
2022-11-16T05:44:41.064Z,84.99
2022-11-16T05:47:07.492Z,82.92
2022-11-16T05:49:33.958Z,82.94
2022-11-16T05:52:00.435Z,84.31
2022-11-16T05:54:26.966Z,83.64
2022-11-16T05:56:54.273Z,85.16
2022-11-16T05:59:21.951Z,85.55
2022-11-16T06:01:48.960Z,84.53
2022-11-16T06:04:15.702Z,83.84
2022-11-16T06:06:43.437Z,84.04
2022-11-16T06:09:12.032Z,86.51
2022-11-16T06:11:38.848Z,84.32
2022-11-16T06:14:05.862Z,83.85
2022-11-16T06:16:32.391Z,86.25
2022-11-16T06:18:59.591Z,84.32
2022-11-16T06:21:26.187Z,84.98
2022-11-16T06:23:52.600Z,84.76
2022-11-16T06:26:19.052Z,85.15
2022-11-16T06:28:45.508Z,85.41
2022-11-16T06:31:11.966Z,84.01
2022-11-16T06:33:38.403Z,84.06
2022-11-16T06:36:05.264Z,83.61
2022-11-16T06:38:31.863Z,83.48
2022-11-16T06:40:59.234Z,85.15
2022-11-16T06:43:26.578Z,82.83
2022-11-16T06:45:55.582Z,85.22
2022-11-16T06:48:22.359Z,83.86
2022-11-16T06:50:49.965Z,83.92
2022-11-16T06:53:16.847Z,83.54
2022-11-16T06:58:10.118Z,82.76
2022-11-16T07:00:36.668Z,83.35
2022-11-16T07:03:03.927Z,84.83
2022-11-16T07:05:31.504Z,84.00
2022-11-16T07:07:58.091Z,84.88
2022-11-16T07:10:25.178Z,84.69
2022-11-16T07:12:51.638Z,84.51
2022-11-16T07:15:18.276Z,85.18
2022-11-16T07:17:44.781Z,83.79
2022-11-16T07:20:12.153Z,82.99
2022-11-16T07:22:38.719Z,83.89
2022-11-16T07:25:05.587Z,83.26
2022-11-16T07:27:32.030Z,84.78
2022-11-16T07:29:58.476Z,84.61
2022-11-16T07:32:24.966Z,84.38
2022-11-16T07:34:51.456Z,84.30
2022-11-16T07:37:17.904Z,83.41
2022-11-16T07:39:45.605Z,84.59
2022-11-16T07:42:12.366Z,85.15
2022-11-16T07:44:39.264Z,86.24
2022-11-16T07:47:06.136Z,86.62
2022-11-16T07:49:32.586Z,87.09
2022-11-16T07:51:59.119Z,85.64
2022-11-16T07:54:25.581Z,85.86
2022-11-16T07:56:54.883Z,85.36
2022-11-16T07:59:21.321Z,85.12
2022-11-16T08:01:48.362Z,84.64
2022-11-16T08:04:17.423Z,84.63
2022-11-16T08:06:44.679Z,85.03
2022-11-16T08:09:11.186Z,84.47
2022-11-16T08:11:38.090Z,86.32
2022-11-16T08:14:04.723Z,86.36
2022-11-16T08:16:33.359Z,85.23
2022-11-16T08:19:03.455Z,86.04
2022-11-16T08:21:29.934Z,85.08
2022-11-16T08:23:58.701Z,83.88
2022-11-16T08:26:25.705Z,84.98
2022-11-16T08:28:53.871Z,84.68
2022-11-16T08:31:27.854Z,84.22
2022-11-16T08:33:54.656Z,84.37
2022-11-16T08:36:21.500Z,85.41
2022-11-16T08:38:49.593Z,85.18
2022-11-16T08:41:17.323Z,86.30
2022-11-16T08:43:46.499Z,83.91
2022-11-16T08:46:13.654Z,84.26
2022-11-16T08:48:40.188Z,85.16
2022-11-16T08:51:19.992Z,83.52
2022-11-16T08:53:48.453Z,83.90
2022-11-16T08:56:16.332Z,84.36
2022-11-16T08:58:47.385Z,83.89
2022-11-16T09:01:16.929Z,85.58
2022-11-16T09:03:44.160Z,82.97
2022-11-16T09:06:11.420Z,82.09
2022-11-16T09:08:39.397Z,81.43
2022-11-16T09:11:07.197Z,83.76
2022-11-16T09:13:33.828Z,82.86
2022-11-16T09:16:01.653Z,83.25
2022-11-16T09:18:28.775Z,82.17
2022-11-16T09:20:55.641Z,81.80
2022-11-16T09:23:25.487Z,83.03
2022-11-16T09:25:52.922Z,83.05
2022-11-16T09:28:20.011Z,83.23
2022-11-16T09:30:49.198Z,81.68
2022-11-16T09:33:15.806Z,81.55
2022-11-16T09:35:42.387Z,80.97
2022-11-16T09:38:15.976Z,80.83
2022-11-16T09:40:47.005Z,80.38
2022-11-16T09:43:58.614Z,79.27
2022-11-16T09:46:39.531Z,79.26
2022-11-16T09:49:17.165Z,82.17
2022-11-16T09:51:47.385Z,79.95
2022-11-16T09:54:24.994Z,80.12
2022-11-16T09:56:54.459Z,79.54
2022-11-16T09:59:26.343Z,81.04
2022-11-16T10:01:57.184Z,79.99
2022-11-16T10:04:37.098Z,79.44
2022-11-16T10:07:18.203Z,80.91
2022-11-16T10:09:45.237Z,82.37
2022-11-16T10:12:20.789Z,81.85
2022-11-16T10:15:07.159Z,81.27
2022-11-16T10:17:43.593Z,79.16
2022-11-16T10:20:31.518Z,79.75
2022-11-16T10:22:58.381Z,78.39
2022-11-16T10:25:58.847Z,79.81
2022-11-16T10:28:28.462Z,81.60
2022-11-16T10:31:02.132Z,82.15
2022-11-16T10:33:35.586Z,79.47
2022-11-16T10:36:21.517Z,79.53
2022-11-16T10:38:48.302Z,79.26
2022-11-16T10:41:25.402Z,80.96
2022-11-16T10:43:51.985Z,80.87
2022-11-16T10:49:04.239Z,80.15
2022-11-16T10:51:30.684Z,80.52
2022-11-16T10:53:57.262Z,82.31
2022-11-16T10:56:40.449Z,78.65
2022-11-16T10:59:28.238Z,80.32
2022-11-16T11:01:54.673Z,80.28
2022-11-16T11:04:28.148Z,80.26
2022-11-16T11:06:56.650Z,80.49
2022-11-16T11:09:34.571Z,81.36
2022-11-16T11:12:34.480Z,80.15
2022-11-16T11:15:27.079Z,80.14
2022-11-16T11:18:15.605Z,80.24
2022-11-16T11:20:45.310Z,81.00
2022-11-16T11:23:15.480Z,79.79
2022-11-16T11:25:50.061Z,79.48
2022-11-16T11:28:19.445Z,79.82
2022-11-16T11:31:17.239Z,79.27
2022-11-16T11:33:49.980Z,79.92
2022-11-16T11:36:20.826Z,78.76
2022-11-16T11:39:04.250Z,77.74
2022-11-16T11:41:37.003Z,78.09
2022-11-16T11:44:23.732Z,78.70
2022-11-16T11:47:42.325Z,78.82
2022-11-16T11:49:50.061Z,78.73
2022-11-16T11:52:39.242Z,79.35
2022-11-16T11:55:07.452Z,77.81
2022-11-16T11:57:38.550Z,79.13
2022-11-16T12:00:06.612Z,78.96
2022-11-16T12:03:01.005Z,79.12
2022-11-16T12:05:45.975Z,78.42
2022-11-16T12:08:24.754Z,80.21
2022-11-16T12:10:53.795Z,80.88
2022-11-16T12:13:26.380Z,80.33
2022-11-16T12:16:01.880Z,78.02
2022-11-16T12:18:56.240Z,77.35
2022-11-16T12:21:35.565Z,78.12
2022-11-16T12:24:43.397Z,78.46
2022-11-16T12:27:18.279Z,77.61
2022-11-16T12:30:23.631Z,77.27
2022-11-16T12:33:00.671Z,77.63
2022-11-16T12:35:44.777Z,77.26
2022-11-16T12:38:20.520Z,78.10
2022-11-16T12:41:16.865Z,77.27
2022-11-16T12:44:12.937Z,78.82
2022-11-16T12:46:54.557Z,78.59
2022-11-16T12:49:33.214Z,77.19
2022-11-16T12:52:37.236Z,79.46
2022-11-16T12:55:26.811Z,77.98
2022-11-16T12:58:03.019Z,78.96
2022-11-16T13:00:39.860Z,78.72
2022-11-16T13:03:12.455Z,78.24
2022-11-16T13:05:41.891Z,77.35
2022-11-16T13:08:19.522Z,77.94
2022-11-16T13:10:48.712Z,76.66
2022-11-16T13:13:35.926Z,76.82
2022-11-16T13:16:10.127Z,77.25
2022-11-16T13:18:40.565Z,76.68
2022-11-16T13:21:22.138Z,77.29
2022-11-16T13:24:08.514Z,77.20
2022-11-16T13:26:50.960Z,77.52
2022-11-16T13:29:34.547Z,77.63
2022-11-16T13:32:16.795Z,77.67
2022-11-16T13:34:43.518Z,78.51
2022-11-16T13:37:38.126Z,75.82
2022-11-16T13:40:04.883Z,75.77
2022-11-16T13:42:33.508Z,76.59
2022-11-16T13:45:09.087Z,79.64
2022-11-16T13:47:36.817Z,76.42
2022-11-16T13:50:06.274Z,76.89
2022-11-16T13:53:36.347Z,76.90
2022-11-16T13:55:36.042Z,77.72
2022-11-16T13:58:04.615Z,78.87
2022-11-16T14:00:33.847Z,77.72
2022-11-16T14:03:15.559Z,77.91
2022-11-16T14:05:52.446Z,76.64
2022-11-16T14:08:18.828Z,78.11
2022-11-16T14:10:45.249Z,78.71
2022-11-16T14:13:30.111Z,78.00
2022-11-16T14:16:14.905Z,78.28
2022-11-16T14:18:42.659Z,79.22
2022-11-16T14:21:17.145Z,77.66
2022-11-16T14:24:02.273Z,79.05
2022-11-16T14:26:47.086Z,79.10
2022-11-16T14:29:28.538Z,81.19
2022-11-16T14:31:59.248Z,78.96
2022-11-16T14:34:46.718Z,79.73
2022-11-16T14:37:30.221Z,79.22
2022-11-16T14:40:09.037Z,79.61
2022-11-16T14:43:15.287Z,79.65
2022-11-16T14:45:47.533Z,80.23
2022-11-16T14:48:17.250Z,78.92
2022-11-16T14:51:05.718Z,80.65
2022-11-16T14:53:33.845Z,78.78
2022-11-16T14:56:12.288Z,79.47
2022-11-16T14:58:39.252Z,80.51
2022-11-16T15:01:14.526Z,80.03
2022-11-16T15:03:55.416Z,80.73
2022-11-16T15:06:22.303Z,82.04
2022-11-16T15:08:51.540Z,82.75
2022-11-16T15:11:59.818Z,81.95
2022-11-16T15:14:29.666Z,81.51
2022-11-16T15:16:57.342Z,82.69
2022-11-16T15:19:24.384Z,83.49
2022-11-16T15:21:57.135Z,82.63
2022-11-16T15:24:32.220Z,83.86
2022-11-16T15:27:09.238Z,83.49
2022-11-16T15:29:36.084Z,85.10
2022-11-16T15:32:02.698Z,82.40
2022-11-16T15:34:29.176Z,81.29
2022-11-16T15:36:55.603Z,83.22
2022-11-16T15:39:24.558Z,84.36
2022-11-16T15:41:51.426Z,82.69
2022-11-16T15:44:20.359Z,84.18
2022-11-16T15:46:52.232Z,82.90
2022-11-16T15:49:29.297Z,84.98
2022-11-16T15:51:59.775Z,83.36
2022-11-16T15:54:51.670Z,84.02
2022-11-16T15:57:19.961Z,83.55
2022-11-16T15:59:49.515Z,83.50
2022-11-16T16:02:18.971Z,83.98
2022-11-16T16:04:45.448Z,83.84
2022-11-16T16:07:13.459Z,84.15
2022-11-16T16:09:40.660Z,84.47
2022-11-16T16:12:21.933Z,84.45
2022-11-16T16:14:49.476Z,82.70
2022-11-16T16:17:26.696Z,84.02
2022-11-16T16:20:19.842Z,83.93
2022-11-16T16:22:46.391Z,84.08
2022-11-16T16:25:34.014Z,83.51
2022-11-16T16:28:00.504Z,84.48
2022-11-16T16:30:28.825Z,82.78
2022-11-16T16:32:55.318Z,84.17
2022-11-16T16:35:23.965Z,82.97
2022-11-16T16:37:52.226Z,82.78
2022-11-16T16:40:18.937Z,83.45
2022-11-16T16:42:48.757Z,83.46
2022-11-16T16:45:19.652Z,82.65
2022-11-16T16:47:46.357Z,83.00
2022-11-16T16:50:12.912Z,82.09
2022-11-16T16:52:39.843Z,83.06
2022-11-16T16:55:06.636Z,82.72
2022-11-16T16:57:33.106Z,81.75
2022-11-16T16:59:59.673Z,84.14
2022-11-16T17:02:26.808Z,81.70
2022-11-16T17:04:53.325Z,83.05
2022-11-16T17:07:22.422Z,82.65
2022-11-16T17:09:49.041Z,82.62
2022-11-16T17:12:15.544Z,82.27
2022-11-16T17:14:42.139Z,80.89
2022-11-16T17:17:08.763Z,80.82
2022-11-16T17:19:35.309Z,80.11
2022-11-16T17:22:01.747Z,78.97
2022-11-16T17:24:28.244Z,79.57
2022-11-16T17:26:54.654Z,79.61
2022-11-16T17:29:21.093Z,78.38
2022-11-16T17:31:47.765Z,79.80
2022-11-16T17:34:14.599Z,79.10
2022-11-16T17:36:41.945Z,80.72
2022-11-16T17:39:08.532Z,81.83
2022-11-16T17:41:34.979Z,80.87
2022-11-16T17:44:01.443Z,81.16
2022-11-16T17:46:29.057Z,80.23
2022-11-16T17:48:56.010Z,80.10
2022-11-16T17:51:29.925Z,79.73
2022-11-16T17:53:56.397Z,78.17
2022-11-16T17:56:27.852Z,79.11
2022-11-16T17:58:55.352Z,78.48
2022-11-16T18:01:22.720Z,80.91
2022-11-16T18:03:49.246Z,79.75
2022-11-16T18:06:18.411Z,81.04
2022-11-16T18:08:45.246Z,79.49
2022-11-16T18:11:17.087Z,77.20
2022-11-16T18:13:44.703Z,78.61
2022-11-16T18:16:13.154Z,79.45
2022-11-16T18:18:40.743Z,79.07
2022-11-16T18:21:08.187Z,78.63
2022-11-16T18:23:35.512Z,77.45
2022-11-16T18:26:06.048Z,76.16
2022-11-16T18:28:32.483Z,76.27
2022-11-16T18:31:04.012Z,76.39
2022-11-16T18:33:30.712Z,76.59
2022-11-16T18:35:57.552Z,75.47
2022-11-16T18:38:24.009Z,76.15
2022-11-16T18:41:12.495Z,74.62
2022-11-16T18:43:39.728Z,73.76
2022-11-16T18:46:06.977Z,73.48
2022-11-16T18:48:33.483Z,72.97
2022-11-16T18:51:00.787Z,72.64
2022-11-16T18:53:27.838Z,71.74
2022-11-16T18:55:57.850Z,73.97
2022-11-16T18:58:49.302Z,71.25
2022-11-16T19:01:14.179Z,71.86
2022-11-16T19:03:40.938Z,72.42
2022-11-16T19:06:09.046Z,70.78
2022-11-16T19:08:40.439Z,70.85
2022-11-16T19:11:16.904Z,72.12
2022-11-16T19:13:44.248Z,71.17
2022-11-16T19:16:12.648Z,71.03
2022-11-16T19:19:02.200Z,72.59
2022-11-16T19:21:28.713Z,71.58
2022-11-16T19:23:56.158Z,72.40
2022-11-16T19:26:24.800Z,70.50
2022-11-16T19:28:52.218Z,70.67
2022-11-16T19:31:23.389Z,70.21
2022-11-16T19:34:00.732Z,70.07
2022-11-16T19:36:28.729Z,69.68
2022-11-16T19:38:55.641Z,70.33
2022-11-16T19:41:22.861Z,70.00
2022-11-16T19:43:52.507Z,69.35
2022-11-16T19:46:22.030Z,69.30
2022-11-16T19:48:49.585Z,68.93
2022-11-16T19:51:27.118Z,69.91
2022-11-16T19:53:53.940Z,69.27
2022-11-16T19:56:22.146Z,69.99
2022-11-16T19:58:48.936Z,70.95
2022-11-16T20:01:17.875Z,69.79
2022-11-16T20:03:45.593Z,69.89
2022-11-16T20:06:13.120Z,70.44
2022-11-16T20:08:41.032Z,69.79
2022-11-16T20:11:12.238Z,69.68
2022-11-16T20:13:38.862Z,68.91
2022-11-16T20:16:07.129Z,68.46
2022-11-16T20:18:33.616Z,69.38
2022-11-16T20:21:05.235Z,71.27
2022-11-16T20:23:35.889Z,69.24
2022-11-16T20:26:10.578Z,70.10
2022-11-16T20:28:38.291Z,68.27
2022-11-16T20:31:09.730Z,68.60
2022-11-16T20:33:36.744Z,68.92
2022-11-16T20:36:05.925Z,67.82
2022-11-16T20:38:34.315Z,68.87
2022-11-16T20:41:17.742Z,68.88
2022-11-16T20:43:45.863Z,68.80
2022-11-16T20:46:17.490Z,68.39
2022-11-16T20:48:45.084Z,68.96
2022-11-16T20:51:14.283Z,69.16
2022-11-16T20:53:42.999Z,68.60
2022-11-16T20:56:11.157Z,67.65
2022-11-16T20:58:40.095Z,68.80
2022-11-16T21:01:13.405Z,67.87
2022-11-16T21:03:40.655Z,68.66
2022-11-16T21:06:10.489Z,69.53
2022-11-16T21:08:38.070Z,68.17
2022-11-16T21:11:19.753Z,68.12
2022-11-16T21:14:05.472Z,68.22
2022-11-16T21:16:32.726Z,67.88
2022-11-16T21:19:00.503Z,68.07
2022-11-16T21:21:27.140Z,66.17
2022-11-16T21:23:54.900Z,68.44
2022-11-16T21:26:26.672Z,67.81
2022-11-16T21:28:53.695Z,67.53
2022-11-16T21:31:25.395Z,66.51
2022-11-16T21:33:52.415Z,66.94
2022-11-16T21:36:20.762Z,67.62
2022-11-16T21:38:47.728Z,65.71
2022-11-16T21:41:15.660Z,67.28
2022-11-16T21:43:42.134Z,66.47
2022-11-16T21:46:13.321Z,67.16
2022-11-16T21:48:40.130Z,66.91
2022-11-16T21:51:08.977Z,66.70
2022-11-16T21:53:36.193Z,66.37
2022-11-16T21:56:03.096Z,67.70
2022-11-16T21:58:29.631Z,67.30
2022-11-16T22:00:57.404Z,67.07
2022-11-16T22:03:25.621Z,67.24
2022-11-16T22:06:19.805Z,66.18
2022-11-16T22:08:47.117Z,65.89
2022-11-16T22:11:14.554Z,66.22
2022-11-16T22:13:41.274Z,66.65
2022-11-16T22:16:11.969Z,66.24
2022-11-16T22:18:38.849Z,66.74
2022-11-16T22:21:10.839Z,67.13
2022-11-16T22:23:38.014Z,65.83
2022-11-16T22:26:20.197Z,65.33
2022-11-16T22:28:46.633Z,66.09
2022-11-16T22:31:14.734Z,64.99
2022-11-16T22:33:41.666Z,65.13
2022-11-16T22:36:09.997Z,65.21
2022-11-16T22:38:36.711Z,65.54
2022-11-16T22:41:03.289Z,65.96
2022-11-16T22:43:30.514Z,66.03
2022-11-16T22:46:01.706Z,65.80
2022-11-16T22:51:05.272Z,65.15
2022-11-16T22:53:31.919Z,65.37
2022-11-16T22:56:06.836Z,65.40
2022-11-16T22:58:33.725Z,65.68
2022-11-16T23:01:00.174Z,64.59
2022-11-16T23:03:26.649Z,64.62
2022-11-16T23:05:53.153Z,64.61
2022-11-16T23:08:24.722Z,64.52
2022-11-16T23:11:17.053Z,64.18
2022-11-16T23:14:02.338Z,64.33
2022-11-16T23:16:28.936Z,64.23
2022-11-16T23:18:55.887Z,65.28
2022-11-16T23:21:41.490Z,64.08
2022-11-16T23:24:31.205Z,64.14
2022-11-16T23:27:17.280Z,64.23
2022-11-16T23:29:43.756Z,64.52
2022-11-16T23:32:10.447Z,65.34
2022-11-16T23:34:36.871Z,64.32
2022-11-16T23:37:05.430Z,63.71
2022-11-16T23:39:31.898Z,64.34
2022-11-16T23:42:16.954Z,64.63
2022-11-16T23:44:43.428Z,64.93
2022-11-16T23:47:10.059Z,64.26
2022-11-16T23:49:36.497Z,64.80
2022-11-16T23:52:02.968Z,63.57
2022-11-16T23:54:29.416Z,64.96
2022-11-16T23:56:55.908Z,64.98
2022-11-16T23:59:22.371Z,64.72
